Alamogordo/Holloman AFB, New Mexico
Current Conditions -  °F | °C
As of 3:58 PM on Saturday 25 Oct 2014 (Local Time) from KHMN Reporting Station
Clear Clear  
Wind Chill: 83°   Ceiling: Unl
Heat Index: 83°   Visibility: 10mi
Dew Point: 41°   Wind: 2mph
Humidity: 22%   Direction: 320°NW
Pressure: 30.15"   Gusts: NA
Location:  32.85°N, 106.1°W
Report Text: KHMN 252158Z AUTO 32002KT 10SM CLR 28/05 A3015 RMK AO2 SLP153 T02840048 $
Loading
Personal Weather Stations






























Interactive Weather Map
Tropical Storm Tracking
New forecast layout! Learn more

10-Day Weather Forecast

Advertisements
Track Severe Weather on mobile